<?xml version="1.0" encoding="UTF-8" standalone="no" ?>
<gpx xmlns="http://www.topografix.com/GPX/1/1" xmlns:xsi="http://www.w3.org/2001/XMLSchema-instance" xsi:schemaLocation="http://www.topografix.com/GPX/1/1 http://www.topografix.com/GPX/1/1/gpx.xsd" version="1.1" creator="VisuGPX - https://www.visugpx.com">
  <metadata>
    <name>Chatanay_Tracé_2023-03-22 12</name>
  </metadata>
  <trk>
    <name><![CDATA[2023-03-22 12:16:27]]></name>
    <extensions>
      <line xmlns="http://www.topografix.com/GPX/gpx_style/0/2">
        <color>0000FF</color>
        <width>4</width>
      </line>
    </extensions>
    <trkseg>
      <trkpt lat="45.71464" lon="4.65554">
        <ele>411.52</ele>
        <time>2023-03-22T07:21:46Z</time>
      </trkpt>
      <trkpt lat="45.714" lon="4.65519">
        <ele>418.65</ele>
        <time>2023-03-22T07:27:49Z</time>
      </trkpt>
      <trkpt lat="45.7139" lon="4.65513">
        <ele>424.43</ele>
        <time>2023-03-22T07:28:49Z</time>
      </trkpt>
      <trkpt lat="45.71378" lon="4.65597">
        <ele>436.18</ele>
        <time>2023-03-22T07:30:04Z</time>
      </trkpt>
      <trkpt lat="45.71356" lon="4.65694">
        <ele>451.56</ele>
        <time>2023-03-22T07:31:38Z</time>
      </trkpt>
      <trkpt lat="45.7134" lon="4.6578">
        <ele>461.37</ele>
        <time>2023-03-22T07:33:51Z</time>
      </trkpt>
      <trkpt lat="45.71355" lon="4.65857">
        <ele>459.97</ele>
        <time>2023-03-22T07:34:36Z</time>
      </trkpt>
      <trkpt lat="45.71321" lon="4.65835">
        <ele>464.98</ele>
        <time>2023-03-22T07:35:24Z</time>
      </trkpt>
      <trkpt lat="45.71284" lon="4.65808">
        <ele>472.51</ele>
        <time>2023-03-22T07:36:39Z</time>
      </trkpt>
      <trkpt lat="45.71237" lon="4.65768">
        <ele>482.35</ele>
        <time>2023-03-22T07:37:36Z</time>
      </trkpt>
      <trkpt lat="45.71205" lon="4.65693">
        <ele>488.2</ele>
        <time>2023-03-22T07:38:27Z</time>
      </trkpt>
      <trkpt lat="45.71179" lon="4.65631">
        <ele>490.93</ele>
        <time>2023-03-22T07:39:10Z</time>
      </trkpt>
      <trkpt lat="45.71146" lon="4.65579">
        <ele>490.41</ele>
        <time>2023-03-22T07:39:47Z</time>
      </trkpt>
      <trkpt lat="45.71115" lon="4.65523">
        <ele>492.41</ele>
        <time>2023-03-22T07:41:23Z</time>
      </trkpt>
      <trkpt lat="45.71083" lon="4.65474">
        <ele>495.71</ele>
        <time>2023-03-22T07:42:02Z</time>
      </trkpt>
      <trkpt lat="45.71046" lon="4.65425">
        <ele>503.17</ele>
        <time>2023-03-22T07:42:52Z</time>
      </trkpt>
      <trkpt lat="45.71023" lon="4.6538">
        <ele>502.87</ele>
        <time>2023-03-22T07:43:58Z</time>
      </trkpt>
      <trkpt lat="45.71041" lon="4.65303">
        <ele>510.87</ele>
        <time>2023-03-22T07:45:00Z</time>
      </trkpt>
      <trkpt lat="45.71058" lon="4.65233">
        <ele>519.26</ele>
        <time>2023-03-22T07:45:59Z</time>
      </trkpt>
      <trkpt lat="45.71077" lon="4.65161">
        <ele>528.48</ele>
        <time>2023-03-22T07:47:23Z</time>
      </trkpt>
      <trkpt lat="45.71086" lon="4.65087">
        <ele>536.39</ele>
        <time>2023-03-22T07:48:22Z</time>
      </trkpt>
      <trkpt lat="45.71092" lon="4.65017">
        <ele>540.78</ele>
        <time>2023-03-22T07:49:06Z</time>
      </trkpt>
      <trkpt lat="45.71089" lon="4.64937">
        <ele>541.82</ele>
        <time>2023-03-22T07:49:54Z</time>
      </trkpt>
      <trkpt lat="45.71079" lon="4.64866">
        <ele>537.07</ele>
        <time>2023-03-22T07:50:38Z</time>
      </trkpt>
      <trkpt lat="45.71069" lon="4.64802">
        <ele>533.35</ele>
        <time>2023-03-22T07:51:17Z</time>
      </trkpt>
      <trkpt lat="45.71054" lon="4.6474">
        <ele>528.62</ele>
        <time>2023-03-22T07:51:58Z</time>
      </trkpt>
      <trkpt lat="45.71031" lon="4.64684">
        <ele>522.24</ele>
        <time>2023-03-22T07:52:40Z</time>
      </trkpt>
      <trkpt lat="45.71042" lon="4.64617">
        <ele>518.31</ele>
        <time>2023-03-22T07:53:23Z</time>
      </trkpt>
      <trkpt lat="45.71053" lon="4.64534">
        <ele>509.04</ele>
        <time>2023-03-22T07:54:27Z</time>
      </trkpt>
      <trkpt lat="45.7108" lon="4.6446">
        <ele>505.19</ele>
        <time>2023-03-22T07:55:47Z</time>
      </trkpt>
      <trkpt lat="45.71143" lon="4.64422">
        <ele>507.89</ele>
        <time>2023-03-22T07:56:46Z</time>
      </trkpt>
      <trkpt lat="45.71188" lon="4.64357">
        <ele>513.26</ele>
        <time>2023-03-22T07:57:43Z</time>
      </trkpt>
      <trkpt lat="45.71223" lon="4.64294">
        <ele>509.6</ele>
        <time>2023-03-22T07:58:30Z</time>
      </trkpt>
      <trkpt lat="45.71247" lon="4.64238">
        <ele>503.31</ele>
        <time>2023-03-22T07:59:14Z</time>
      </trkpt>
      <trkpt lat="45.71266" lon="4.64168">
        <ele>494.67</ele>
        <time>2023-03-22T08:00:10Z</time>
      </trkpt>
      <trkpt lat="45.7128" lon="4.6409">
        <ele>487.05</ele>
        <time>2023-03-22T08:01:04Z</time>
      </trkpt>
      <trkpt lat="45.71276" lon="4.63996">
        <ele>480.16</ele>
        <time>2023-03-22T08:02:03Z</time>
      </trkpt>
      <trkpt lat="45.71261" lon="4.63904">
        <ele>472.93</ele>
        <time>2023-03-22T08:03:03Z</time>
      </trkpt>
      <trkpt lat="45.71261" lon="4.63796">
        <ele>467.44</ele>
        <time>2023-03-22T08:04:13Z</time>
      </trkpt>
      <trkpt lat="45.71282" lon="4.63688">
        <ele>467.62</ele>
        <time>2023-03-22T08:05:18Z</time>
      </trkpt>
      <trkpt lat="45.71332" lon="4.63616">
        <ele>461.78</ele>
        <time>2023-03-22T08:06:21Z</time>
      </trkpt>
      <trkpt lat="45.71386" lon="4.63543">
        <ele>456.23</ele>
        <time>2023-03-22T08:07:28Z</time>
      </trkpt>
      <trkpt lat="45.71427" lon="4.6347">
        <ele>452.08</ele>
        <time>2023-03-22T08:08:19Z</time>
      </trkpt>
      <trkpt lat="45.71434" lon="4.63393">
        <ele>443.9</ele>
        <time>2023-03-22T08:09:10Z</time>
      </trkpt>
      <trkpt lat="45.71424" lon="4.63312">
        <ele>433.79</ele>
        <time>2023-03-22T08:10:10Z</time>
      </trkpt>
      <trkpt lat="45.71398" lon="4.63249">
        <ele>424.61</ele>
        <time>2023-03-22T08:11:08Z</time>
      </trkpt>
      <trkpt lat="45.71347" lon="4.63222">
        <ele>417.66</ele>
        <time>2023-03-22T08:12:02Z</time>
      </trkpt>
      <trkpt lat="45.71294" lon="4.63196">
        <ele>411.95</ele>
        <time>2023-03-22T08:12:55Z</time>
      </trkpt>
      <trkpt lat="45.71271" lon="4.63158">
        <ele>407.6</ele>
        <time>2023-03-22T08:13:50Z</time>
      </trkpt>
      <trkpt lat="45.71323" lon="4.63165">
        <ele>401.49</ele>
        <time>2023-03-22T08:14:36Z</time>
      </trkpt>
      <trkpt lat="45.71373" lon="4.63141">
        <ele>396.31</ele>
        <time>2023-03-22T08:15:13Z</time>
      </trkpt>
      <trkpt lat="45.71422" lon="4.63138">
        <ele>395.26</ele>
        <time>2023-03-22T08:15:49Z</time>
      </trkpt>
      <trkpt lat="45.71468" lon="4.63147">
        <ele>393.33</ele>
        <time>2023-03-22T08:16:23Z</time>
      </trkpt>
      <trkpt lat="45.71502" lon="4.63118">
        <ele>386.49</ele>
        <time>2023-03-22T08:17:13Z</time>
      </trkpt>
      <trkpt lat="45.71543" lon="4.63101">
        <ele>389.3</ele>
        <time>2023-03-22T08:18:03Z</time>
      </trkpt>
      <trkpt lat="45.71587" lon="4.63144">
        <ele>387.27</ele>
        <time>2023-03-22T08:18:47Z</time>
      </trkpt>
      <trkpt lat="45.71636" lon="4.63168">
        <ele>380.03</ele>
        <time>2023-03-22T08:19:32Z</time>
      </trkpt>
      <trkpt lat="45.71693" lon="4.63168">
        <ele>373.67</ele>
        <time>2023-03-22T08:20:21Z</time>
      </trkpt>
      <trkpt lat="45.71742" lon="4.63178">
        <ele>363.43</ele>
        <time>2023-03-22T08:21:17Z</time>
      </trkpt>
      <trkpt lat="45.71764" lon="4.63141">
        <ele>356.24</ele>
        <time>2023-03-22T08:22:09Z</time>
      </trkpt>
      <trkpt lat="45.71787" lon="4.63185">
        <ele>353.44</ele>
        <time>2023-03-22T08:23:21Z</time>
      </trkpt>
      <trkpt lat="45.71814" lon="4.63185">
        <ele>360.11</ele>
        <time>2023-03-22T08:24:27Z</time>
      </trkpt>
      <trkpt lat="45.71842" lon="4.63248">
        <ele>372.11</ele>
        <time>2023-03-22T08:25:41Z</time>
      </trkpt>
      <trkpt lat="45.71868" lon="4.63241">
        <ele>384.37</ele>
        <time>2023-03-22T08:27:57Z</time>
      </trkpt>
      <trkpt lat="45.71919" lon="4.63269">
        <ele>399.91</ele>
        <time>2023-03-22T08:29:33Z</time>
      </trkpt>
      <trkpt lat="45.71964" lon="4.63266">
        <ele>409.45</ele>
        <time>2023-03-22T08:30:39Z</time>
      </trkpt>
      <trkpt lat="45.7201" lon="4.6327">
        <ele>419.44</ele>
        <time>2023-03-22T08:31:38Z</time>
      </trkpt>
      <trkpt lat="45.72051" lon="4.63296">
        <ele>426.91</ele>
        <time>2023-03-22T08:32:28Z</time>
      </trkpt>
      <trkpt lat="45.72093" lon="4.63323">
        <ele>433.42</ele>
        <time>2023-03-22T08:33:18Z</time>
      </trkpt>
      <trkpt lat="45.72135" lon="4.63349">
        <ele>440.15</ele>
        <time>2023-03-22T08:34:05Z</time>
      </trkpt>
      <trkpt lat="45.72178" lon="4.63373">
        <ele>444.13</ele>
        <time>2023-03-22T08:34:48Z</time>
      </trkpt>
      <trkpt lat="45.72223" lon="4.63383">
        <ele>443.49</ele>
        <time>2023-03-22T08:35:24Z</time>
      </trkpt>
      <trkpt lat="45.72267" lon="4.63394">
        <ele>443.6</ele>
        <time>2023-03-22T08:36:00Z</time>
      </trkpt>
      <trkpt lat="45.72301" lon="4.63355">
        <ele>446.26</ele>
        <time>2023-03-22T08:36:40Z</time>
      </trkpt>
      <trkpt lat="45.72339" lon="4.63347">
        <ele>447.39</ele>
        <time>2023-03-22T08:40:24Z</time>
      </trkpt>
      <trkpt lat="45.72385" lon="4.6335">
        <ele>453.83</ele>
        <time>2023-03-22T08:41:09Z</time>
      </trkpt>
      <trkpt lat="45.7243" lon="4.63338">
        <ele>462.37</ele>
        <time>2023-03-22T08:42:03Z</time>
      </trkpt>
      <trkpt lat="45.72468" lon="4.63362">
        <ele>473.47</ele>
        <time>2023-03-22T08:43:10Z</time>
      </trkpt>
      <trkpt lat="45.72528" lon="4.63357">
        <ele>479.73</ele>
        <time>2023-03-22T08:44:08Z</time>
      </trkpt>
      <trkpt lat="45.72582" lon="4.63344">
        <ele>491.91</ele>
        <time>2023-03-22T08:45:25Z</time>
      </trkpt>
      <trkpt lat="45.72615" lon="4.63282">
        <ele>505.83</ele>
        <time>2023-03-22T08:46:48Z</time>
      </trkpt>
      <trkpt lat="45.72649" lon="4.63233">
        <ele>513.7</ele>
        <time>2023-03-22T08:47:47Z</time>
      </trkpt>
      <trkpt lat="45.72687" lon="4.63191">
        <ele>516.9</ele>
        <time>2023-03-22T08:48:34Z</time>
      </trkpt>
      <trkpt lat="45.72736" lon="4.63169">
        <ele>524.22</ele>
        <time>2023-03-22T08:49:29Z</time>
      </trkpt>
      <trkpt lat="45.72788" lon="4.63159">
        <ele>523.91</ele>
        <time>2023-03-22T08:50:18Z</time>
      </trkpt>
      <trkpt lat="45.7283" lon="4.63136">
        <ele>522.66</ele>
        <time>2023-03-22T08:50:58Z</time>
      </trkpt>
      <trkpt lat="45.72864" lon="4.63073">
        <ele>523.79</ele>
        <time>2023-03-22T08:51:47Z</time>
      </trkpt>
      <trkpt lat="45.72884" lon="4.63007">
        <ele>530.23</ele>
        <time>2023-03-22T08:52:43Z</time>
      </trkpt>
      <trkpt lat="45.7292" lon="4.62963">
        <ele>541.31</ele>
        <time>2023-03-22T08:54:48Z</time>
      </trkpt>
      <trkpt lat="45.72964" lon="4.6293">
        <ele>550.28</ele>
        <time>2023-03-22T08:55:45Z</time>
      </trkpt>
      <trkpt lat="45.73019" lon="4.62949">
        <ele>553.83</ele>
        <time>2023-03-22T08:56:38Z</time>
      </trkpt>
      <trkpt lat="45.73072" lon="4.62976">
        <ele>557.95</ele>
        <time>2023-03-22T08:57:26Z</time>
      </trkpt>
      <trkpt lat="45.7312" lon="4.62984">
        <ele>565.29</ele>
        <time>2023-03-22T08:58:19Z</time>
      </trkpt>
      <trkpt lat="45.73158" lon="4.6292">
        <ele>573.39</ele>
        <time>2023-03-22T08:59:21Z</time>
      </trkpt>
      <trkpt lat="45.73169" lon="4.62853">
        <ele>576.05</ele>
        <time>2023-03-22T09:00:06Z</time>
      </trkpt>
      <trkpt lat="45.73182" lon="4.62785">
        <ele>579.32</ele>
        <time>2023-03-22T09:00:58Z</time>
      </trkpt>
      <trkpt lat="45.73199" lon="4.62729">
        <ele>583.3</ele>
        <time>2023-03-22T09:01:47Z</time>
      </trkpt>
      <trkpt lat="45.73212" lon="4.62801">
        <ele>593.14</ele>
        <time>2023-03-22T09:02:57Z</time>
      </trkpt>
      <trkpt lat="45.73246" lon="4.62814">
        <ele>603.1</ele>
        <time>2023-03-22T09:04:14Z</time>
      </trkpt>
      <trkpt lat="45.73293" lon="4.62778">
        <ele>612.14</ele>
        <time>2023-03-22T09:05:20Z</time>
      </trkpt>
      <trkpt lat="45.73347" lon="4.62757">
        <ele>617.74</ele>
        <time>2023-03-22T09:06:16Z</time>
      </trkpt>
      <trkpt lat="45.73403" lon="4.62731">
        <ele>620.55</ele>
        <time>2023-03-22T09:07:12Z</time>
      </trkpt>
      <trkpt lat="45.73434" lon="4.62704">
        <ele>621.34</ele>
        <time>2023-03-22T09:09:18Z</time>
      </trkpt>
      <trkpt lat="45.73488" lon="4.62691">
        <ele>633.39</ele>
        <time>2023-03-22T09:10:37Z</time>
      </trkpt>
      <trkpt lat="45.73549" lon="4.6267">
        <ele>646.6</ele>
        <time>2023-03-22T09:12:10Z</time>
      </trkpt>
      <trkpt lat="45.7358" lon="4.62602">
        <ele>655.81</ele>
        <time>2023-03-22T09:13:28Z</time>
      </trkpt>
      <trkpt lat="45.73573" lon="4.62513">
        <ele>661.58</ele>
        <time>2023-03-22T09:14:33Z</time>
      </trkpt>
      <trkpt lat="45.73549" lon="4.62423">
        <ele>671.03</ele>
        <time>2023-03-22T09:15:50Z</time>
      </trkpt>
      <trkpt lat="45.7354" lon="4.62342">
        <ele>680.86</ele>
        <time>2023-03-22T09:17:18Z</time>
      </trkpt>
      <trkpt lat="45.73531" lon="4.62256">
        <ele>686.93</ele>
        <time>2023-03-22T09:18:26Z</time>
      </trkpt>
      <trkpt lat="45.73539" lon="4.62168">
        <ele>690.71</ele>
        <time>2023-03-22T09:19:20Z</time>
      </trkpt>
      <trkpt lat="45.73546" lon="4.62095">
        <ele>694</ele>
        <time>2023-03-22T09:20:03Z</time>
      </trkpt>
      <trkpt lat="45.73551" lon="4.62028">
        <ele>693.88</ele>
        <time>2023-03-22T09:20:40Z</time>
      </trkpt>
      <trkpt lat="45.73562" lon="4.61964">
        <ele>695.26</ele>
        <time>2023-03-22T09:21:17Z</time>
      </trkpt>
      <trkpt lat="45.73571" lon="4.6189">
        <ele>697.33</ele>
        <time>2023-03-22T09:22:02Z</time>
      </trkpt>
      <trkpt lat="45.7358" lon="4.61821">
        <ele>697.16</ele>
        <time>2023-03-22T09:22:38Z</time>
      </trkpt>
      <trkpt lat="45.73604" lon="4.61769">
        <ele>697.6</ele>
        <time>2023-03-22T09:23:14Z</time>
      </trkpt>
      <trkpt lat="45.7364" lon="4.61731">
        <ele>696.21</ele>
        <time>2023-03-22T09:23:49Z</time>
      </trkpt>
      <trkpt lat="45.7367" lon="4.61683">
        <ele>696.2</ele>
        <time>2023-03-22T09:24:26Z</time>
      </trkpt>
      <trkpt lat="45.73701" lon="4.61678">
        <ele>696</ele>
        <time>2023-03-22T09:25:13Z</time>
      </trkpt>
      <trkpt lat="45.73739" lon="4.61716">
        <ele>689.43</ele>
        <time>2023-03-22T09:26:01Z</time>
      </trkpt>
      <trkpt lat="45.73752" lon="4.61778">
        <ele>680.88</ele>
        <time>2023-03-22T09:26:50Z</time>
      </trkpt>
      <trkpt lat="45.73797" lon="4.61825">
        <ele>667.96</ele>
        <time>2023-03-22T09:27:58Z</time>
      </trkpt>
      <trkpt lat="45.73826" lon="4.61886">
        <ele>657.86</ele>
        <time>2023-03-22T09:28:56Z</time>
      </trkpt>
      <trkpt lat="45.73851" lon="4.61903">
        <ele>653.34</ele>
        <time>2023-03-22T09:31:16Z</time>
      </trkpt>
      <trkpt lat="45.73864" lon="4.61954">
        <ele>650.25</ele>
        <time>2023-03-22T09:33:08Z</time>
      </trkpt>
      <trkpt lat="45.7389" lon="4.62022">
        <ele>641.59</ele>
        <time>2023-03-22T09:34:19Z</time>
      </trkpt>
      <trkpt lat="45.73835" lon="4.6208">
        <ele>655.25</ele>
        <time>2023-03-22T09:36:05Z</time>
      </trkpt>
      <trkpt lat="45.73839" lon="4.62174">
        <ele>657.96</ele>
        <time>2023-03-22T09:37:09Z</time>
      </trkpt>
      <trkpt lat="45.73845" lon="4.62264">
        <ele>658.03</ele>
        <time>2023-03-22T09:38:05Z</time>
      </trkpt>
      <trkpt lat="45.73851" lon="4.6235">
        <ele>654.55</ele>
        <time>2023-03-22T09:38:57Z</time>
      </trkpt>
      <trkpt lat="45.73859" lon="4.62442">
        <ele>649.01</ele>
        <time>2023-03-22T09:39:50Z</time>
      </trkpt>
      <trkpt lat="45.73852" lon="4.62531">
        <ele>642.55</ele>
        <time>2023-03-22T09:40:45Z</time>
      </trkpt>
      <trkpt lat="45.73849" lon="4.62625">
        <ele>631.71</ele>
        <time>2023-03-22T09:41:58Z</time>
      </trkpt>
      <trkpt lat="45.73799" lon="4.62663">
        <ele>624.19</ele>
        <time>2023-03-22T09:42:57Z</time>
      </trkpt>
      <trkpt lat="45.73729" lon="4.62682">
        <ele>624.21</ele>
        <time>2023-03-22T09:44:02Z</time>
      </trkpt>
      <trkpt lat="45.73669" lon="4.6275">
        <ele>624.88</ele>
        <time>2023-03-22T09:45:07Z</time>
      </trkpt>
      <trkpt lat="45.73605" lon="4.62803">
        <ele>625.44</ele>
        <time>2023-03-22T09:46:07Z</time>
      </trkpt>
      <trkpt lat="45.73542" lon="4.62847">
        <ele>624.61</ele>
        <time>2023-03-22T09:47:05Z</time>
      </trkpt>
      <trkpt lat="45.7356" lon="4.62863">
        <ele>619.04</ele>
        <time>2023-03-22T09:49:08Z</time>
      </trkpt>
      <trkpt lat="45.73608" lon="4.62922">
        <ele>600.7</ele>
        <time>2023-03-22T09:50:30Z</time>
      </trkpt>
      <trkpt lat="45.73645" lon="4.62986">
        <ele>584.65</ele>
        <time>2023-03-22T09:51:42Z</time>
      </trkpt>
      <trkpt lat="45.7362" lon="4.63043">
        <ele>579.48</ele>
        <time>2023-03-22T09:52:35Z</time>
      </trkpt>
      <trkpt lat="45.73566" lon="4.63045">
        <ele>572.49</ele>
        <time>2023-03-22T09:53:30Z</time>
      </trkpt>
      <trkpt lat="45.73507" lon="4.63036">
        <ele>565.1</ele>
        <time>2023-03-22T09:54:23Z</time>
      </trkpt>
      <trkpt lat="45.73451" lon="4.63055">
        <ele>558.62</ele>
        <time>2023-03-22T09:55:16Z</time>
      </trkpt>
      <trkpt lat="45.73404" lon="4.63118">
        <ele>557.52</ele>
        <time>2023-03-22T09:56:10Z</time>
      </trkpt>
      <trkpt lat="45.73353" lon="4.63158">
        <ele>551.88</ele>
        <time>2023-03-22T09:57:01Z</time>
      </trkpt>
      <trkpt lat="45.73311" lon="4.63162">
        <ele>549.27</ele>
        <time>2023-03-22T10:00:45Z</time>
      </trkpt>
      <trkpt lat="45.73254" lon="4.6313">
        <ele>554.32</ele>
        <time>2023-03-22T10:01:42Z</time>
      </trkpt>
      <trkpt lat="45.73203" lon="4.63092">
        <ele>564.81</ele>
        <time>2023-03-22T10:02:51Z</time>
      </trkpt>
      <trkpt lat="45.73165" lon="4.63031">
        <ele>572.57</ele>
        <time>2023-03-22T10:03:48Z</time>
      </trkpt>
      <trkpt lat="45.73157" lon="4.6306">
        <ele>572.18</ele>
        <time>2023-03-22T10:06:52Z</time>
      </trkpt>
      <trkpt lat="45.73157" lon="4.63128">
        <ele>571.15</ele>
        <time>2023-03-22T10:07:31Z</time>
      </trkpt>
      <trkpt lat="45.73152" lon="4.63209">
        <ele>570.11</ele>
        <time>2023-03-22T10:08:15Z</time>
      </trkpt>
      <trkpt lat="45.73146" lon="4.63292">
        <ele>569.78</ele>
        <time>2023-03-22T10:08:59Z</time>
      </trkpt>
      <trkpt lat="45.73134" lon="4.63375">
        <ele>570.32</ele>
        <time>2023-03-22T10:09:44Z</time>
      </trkpt>
      <trkpt lat="45.73117" lon="4.63448">
        <ele>570.32</ele>
        <time>2023-03-22T10:10:24Z</time>
      </trkpt>
      <trkpt lat="45.7311" lon="4.63522">
        <ele>565.94</ele>
        <time>2023-03-22T10:11:04Z</time>
      </trkpt>
      <trkpt lat="45.73096" lon="4.63588">
        <ele>560.36</ele>
        <time>2023-03-22T10:11:41Z</time>
      </trkpt>
      <trkpt lat="45.73087" lon="4.63665">
        <ele>558.06</ele>
        <time>2023-03-22T10:12:20Z</time>
      </trkpt>
      <trkpt lat="45.73094" lon="4.63732">
        <ele>556.28</ele>
        <time>2023-03-22T10:12:55Z</time>
      </trkpt>
      <trkpt lat="45.73098" lon="4.63801">
        <ele>552.61</ele>
        <time>2023-03-22T10:13:29Z</time>
      </trkpt>
      <trkpt lat="45.73094" lon="4.63864">
        <ele>548.38</ele>
        <time>2023-03-22T10:14:07Z</time>
      </trkpt>
      <trkpt lat="45.73074" lon="4.63933">
        <ele>544.86</ele>
        <time>2023-03-22T10:14:45Z</time>
      </trkpt>
      <trkpt lat="45.73056" lon="4.63994">
        <ele>541.01</ele>
        <time>2023-03-22T10:15:22Z</time>
      </trkpt>
      <trkpt lat="45.73041" lon="4.64058">
        <ele>534.48</ele>
        <time>2023-03-22T10:16:04Z</time>
      </trkpt>
      <trkpt lat="45.73019" lon="4.64125">
        <ele>526.99</ele>
        <time>2023-03-22T10:16:51Z</time>
      </trkpt>
      <trkpt lat="45.73003" lon="4.64195">
        <ele>520.09</ele>
        <time>2023-03-22T10:17:32Z</time>
      </trkpt>
      <trkpt lat="45.73005" lon="4.64258">
        <ele>512.36</ele>
        <time>2023-03-22T10:18:15Z</time>
      </trkpt>
      <trkpt lat="45.73028" lon="4.64318">
        <ele>506.58</ele>
        <time>2023-03-22T10:19:00Z</time>
      </trkpt>
      <trkpt lat="45.73053" lon="4.64382">
        <ele>500.33</ele>
        <time>2023-03-22T10:19:44Z</time>
      </trkpt>
      <trkpt lat="45.73067" lon="4.6445">
        <ele>491.05</ele>
        <time>2023-03-22T10:20:31Z</time>
      </trkpt>
      <trkpt lat="45.73069" lon="4.64522">
        <ele>480.94</ele>
        <time>2023-03-22T10:21:23Z</time>
      </trkpt>
      <trkpt lat="45.73084" lon="4.64574">
        <ele>468.6</ele>
        <time>2023-03-22T10:22:25Z</time>
      </trkpt>
      <trkpt lat="45.73091" lon="4.64639">
        <ele>455.38</ele>
        <time>2023-03-22T10:23:30Z</time>
      </trkpt>
      <trkpt lat="45.73049" lon="4.64663">
        <ele>449.57</ele>
        <time>2023-03-22T10:24:21Z</time>
      </trkpt>
      <trkpt lat="45.73008" lon="4.64699">
        <ele>443.87</ele>
        <time>2023-03-22T10:25:22Z</time>
      </trkpt>
      <trkpt lat="45.72987" lon="4.64746">
        <ele>436.25</ele>
        <time>2023-03-22T10:26:15Z</time>
      </trkpt>
      <trkpt lat="45.72953" lon="4.64782">
        <ele>427.16</ele>
        <time>2023-03-22T10:26:55Z</time>
      </trkpt>
      <trkpt lat="45.72907" lon="4.64792">
        <ele>421.6</ele>
        <time>2023-03-22T10:27:36Z</time>
      </trkpt>
      <trkpt lat="45.72887" lon="4.64734">
        <ele>422.15</ele>
        <time>2023-03-22T10:28:15Z</time>
      </trkpt>
      <trkpt lat="45.72858" lon="4.64673">
        <ele>417.34</ele>
        <time>2023-03-22T10:28:54Z</time>
      </trkpt>
      <trkpt lat="45.72831" lon="4.64618">
        <ele>411.72</ele>
        <time>2023-03-22T10:29:29Z</time>
      </trkpt>
      <trkpt lat="45.7281" lon="4.64546">
        <ele>410</ele>
        <time>2023-03-22T10:30:09Z</time>
      </trkpt>
      <trkpt lat="45.7278" lon="4.64487">
        <ele>411.98</ele>
        <time>2023-03-22T10:30:48Z</time>
      </trkpt>
      <trkpt lat="45.72748" lon="4.64423">
        <ele>413.43</ele>
        <time>2023-03-22T10:31:30Z</time>
      </trkpt>
      <trkpt lat="45.72713" lon="4.64352">
        <ele>417.67</ele>
        <time>2023-03-22T10:32:22Z</time>
      </trkpt>
      <trkpt lat="45.72676" lon="4.64284">
        <ele>427.53</ele>
        <time>2023-03-22T10:33:42Z</time>
      </trkpt>
      <trkpt lat="45.72647" lon="4.64221">
        <ele>436.47</ele>
        <time>2023-03-22T10:34:46Z</time>
      </trkpt>
      <trkpt lat="45.72627" lon="4.64162">
        <ele>436.76</ele>
        <time>2023-03-22T10:35:27Z</time>
      </trkpt>
      <trkpt lat="45.72614" lon="4.64098">
        <ele>431.11</ele>
        <time>2023-03-22T10:36:07Z</time>
      </trkpt>
      <trkpt lat="45.72611" lon="4.64034">
        <ele>428.7</ele>
        <time>2023-03-22T10:36:44Z</time>
      </trkpt>
      <trkpt lat="45.7259" lon="4.64062">
        <ele>423.96</ele>
        <time>2023-03-22T10:37:33Z</time>
      </trkpt>
      <trkpt lat="45.72561" lon="4.64118">
        <ele>422.4</ele>
        <time>2023-03-22T10:38:10Z</time>
      </trkpt>
      <trkpt lat="45.72521" lon="4.64154">
        <ele>420.94</ele>
        <time>2023-03-22T10:38:46Z</time>
      </trkpt>
      <trkpt lat="45.72478" lon="4.64152">
        <ele>419.72</ele>
        <time>2023-03-22T10:39:22Z</time>
      </trkpt>
      <trkpt lat="45.7244" lon="4.64179">
        <ele>418.58</ele>
        <time>2023-03-22T10:40:00Z</time>
      </trkpt>
      <trkpt lat="45.72414" lon="4.64226">
        <ele>415.79</ele>
        <time>2023-03-22T10:40:43Z</time>
      </trkpt>
      <trkpt lat="45.72354" lon="4.64229">
        <ele>405.7</ele>
        <time>2023-03-22T10:41:38Z</time>
      </trkpt>
      <trkpt lat="45.72297" lon="4.64233">
        <ele>397.19</ele>
        <time>2023-03-22T10:42:24Z</time>
      </trkpt>
      <trkpt lat="45.72247" lon="4.64243">
        <ele>389.16</ele>
        <time>2023-03-22T10:43:05Z</time>
      </trkpt>
      <trkpt lat="45.72208" lon="4.64281">
        <ele>382.24</ele>
        <time>2023-03-22T10:43:45Z</time>
      </trkpt>
      <trkpt lat="45.72167" lon="4.64309">
        <ele>375.31</ele>
        <time>2023-03-22T10:44:48Z</time>
      </trkpt>
      <trkpt lat="45.72128" lon="4.64341">
        <ele>370.64</ele>
        <time>2023-03-22T10:45:26Z</time>
      </trkpt>
      <trkpt lat="45.72103" lon="4.6438">
        <ele>362.24</ele>
        <time>2023-03-22T10:47:40Z</time>
      </trkpt>
      <trkpt lat="45.72109" lon="4.64448">
        <ele>358.99</ele>
        <time>2023-03-22T10:48:30Z</time>
      </trkpt>
      <trkpt lat="45.72083" lon="4.64498">
        <ele>346.71</ele>
        <time>2023-03-22T10:49:23Z</time>
      </trkpt>
      <trkpt lat="45.72039" lon="4.64488">
        <ele>337.72</ele>
        <time>2023-03-22T10:50:08Z</time>
      </trkpt>
      <trkpt lat="45.7199" lon="4.6451">
        <ele>335.98</ele>
        <time>2023-03-22T10:50:54Z</time>
      </trkpt>
      <trkpt lat="45.71941" lon="4.64543">
        <ele>345.9</ele>
        <time>2023-03-22T10:51:57Z</time>
      </trkpt>
      <trkpt lat="45.71902" lon="4.64544">
        <ele>354.94</ele>
        <time>2023-03-22T10:52:58Z</time>
      </trkpt>
      <trkpt lat="45.71849" lon="4.6458">
        <ele>361.76</ele>
        <time>2023-03-22T10:53:57Z</time>
      </trkpt>
      <trkpt lat="45.71784" lon="4.64609">
        <ele>363.68</ele>
        <time>2023-03-22T10:54:54Z</time>
      </trkpt>
      <trkpt lat="45.71753" lon="4.64659">
        <ele>369.87</ele>
        <time>2023-03-22T10:56:01Z</time>
      </trkpt>
      <trkpt lat="45.71738" lon="4.64716">
        <ele>381.41</ele>
        <time>2023-03-22T10:57:22Z</time>
      </trkpt>
      <trkpt lat="45.71736" lon="4.64777">
        <ele>391.97</ele>
        <time>2023-03-22T10:58:59Z</time>
      </trkpt>
      <trkpt lat="45.7174" lon="4.64842">
        <ele>400.49</ele>
        <time>2023-03-22T10:59:58Z</time>
      </trkpt>
      <trkpt lat="45.71745" lon="4.64901">
        <ele>404.48</ele>
        <time>2023-03-22T11:04:41Z</time>
      </trkpt>
      <trkpt lat="45.71718" lon="4.64951">
        <ele>406.77</ele>
        <time>2023-03-22T11:05:23Z</time>
      </trkpt>
      <trkpt lat="45.71678" lon="4.64978">
        <ele>409.5</ele>
        <time>2023-03-22T11:06:07Z</time>
      </trkpt>
      <trkpt lat="45.71634" lon="4.65011">
        <ele>417.48</ele>
        <time>2023-03-22T11:07:03Z</time>
      </trkpt>
      <trkpt lat="45.71583" lon="4.65059">
        <ele>425.96</ele>
        <time>2023-03-22T11:08:05Z</time>
      </trkpt>
      <trkpt lat="45.71533" lon="4.65123">
        <ele>429.01</ele>
        <time>2023-03-22T11:09:00Z</time>
      </trkpt>
      <trkpt lat="45.71473" lon="4.65128">
        <ele>431.51</ele>
        <time>2023-03-22T11:09:48Z</time>
      </trkpt>
      <trkpt lat="45.71415" lon="4.65159">
        <ele>438.75</ele>
        <time>2023-03-22T11:10:55Z</time>
      </trkpt>
      <trkpt lat="45.71406" lon="4.65241">
        <ele>440.32</ele>
        <time>2023-03-22T11:11:45Z</time>
      </trkpt>
      <trkpt lat="45.71372" lon="4.65314">
        <ele>436.2</ele>
        <time>2023-03-22T11:12:35Z</time>
      </trkpt>
      <trkpt lat="45.7137" lon="4.65375">
        <ele>436</ele>
        <time>2023-03-22T11:13:16Z</time>
      </trkpt>
      <trkpt lat="45.7141" lon="4.65416">
        <ele>434.38</ele>
        <time>2023-03-22T11:13:54Z</time>
      </trkpt>
      <trkpt lat="45.71434" lon="4.65467">
        <ele>429.39</ele>
        <time>2023-03-22T11:14:33Z</time>
      </trkpt>
      <trkpt lat="45.71406" lon="4.65511">
        <ele>425.35</ele>
        <time>2023-03-22T11:15:11Z</time>
      </trkpt>
      <trkpt lat="45.71428" lon="4.65555">
        <ele>417.54</ele>
        <time>2023-03-22T11:16:02Z</time>
      </trkpt>
      <trkpt lat="45.71435" lon="4.65545">
        <ele>416.09</ele>
        <time>2023-03-22T11:16:26Z</time>
      </trkpt>
    </trkseg>
  </trk>
</gpx>